Time;durP1;ratioP1;P1;durP2;ratioP2;P2;SDS_P1;SDS_P2;PMS_P1;PMS_P2;Temp;Humidity;BMP_temperature;BMP_pressure;BME280_temperature;BME280_humidity;BME280_pressure;Samples;Min_cycle;Max_cycle;Signal;HPM_P1;HPM_P2
2023/09/23 00:00:22;;;;;;;2.07;0.80;;;21.90;99.90;;;;;;4976941;28;20251;-67
2023/09/23 00:02:50;;;;;;;1.87;0.70;;;21.70;99.90;;;;;;4976738;28;20214;-66
2023/09/23 00:05:20;;;;;;;1.70;0.60;;;22.10;99.90;;;;;;4976844;28;20182;-68
2023/09/23 00:07:49;;;;;;;2.77;0.60;;;22.30;99.90;;;;;;4976545;28;20246;-69
2023/09/23 00:10:17;;;;;;;5.17;0.77;;;22.00;99.90;;;;;;4976384;28;20183;-69
2023/09/23 00:12:45;;;;;;;3.77;1.00;;;22.10;99.90;;;;;;4976567;28;20253;-66
2023/09/23 00:15:12;;;;;;;3.07;0.63;;;22.10;99.90;;;;;;4976488;28;20342;-67
2023/09/23 00:17:45;;;;;;;4.57;0.90;;;22.10;99.90;;;;;;4976456;28;20187;-67
2023/09/23 00:20:16;;;;;;;1.17;0.60;;;22.20;99.90;;;;;;4976608;28;20708;-69
2023/09/23 00:22:47;;;;;;;2.20;0.60;;;22.00;99.90;;;;;;4976627;28;20266;-67
2023/09/23 00:25:18;;;;;;;2.60;0.80;;;21.80;99.90;;;;;;4976702;28;20171;-69
2023/09/23 00:27:46;;;;;;;1.20;0.70;;;21.50;99.90;;;;;;4976488;28;20185;-69
2023/09/23 00:30:14;;;;;;;2.40;0.80;;;21.30;99.90;;;;;;4976314;28;20178;-69
2023/09/23 00:32:43;;;;;;;2.77;0.73;;;21.50;99.90;;;;;;4976451;28;20210;-67
2023/09/23 00:35:12;;;;;;;4.73;1.20;;;21.50;99.90;;;;;;4976082;28;20222;-68
2023/09/23 00:37:42;;;;;;;2.87;0.77;;;21.90;99.90;;;;;;4976176;28;20651;-68
2023/09/23 00:40:17;;;;;;;1.53;0.60;;;22.00;99.90;;;;;;4976115;28;20586;-70
2023/09/23 00:42:49;;;;;;;2.27;0.90;;;22.00;99.90;;;;;;4976202;28;20183;-67
2023/09/23 00:45:18;;;;;;;5.13;0.77;;;21.90;99.90;;;;;;4976175;28;20258;-68
2023/09/23 00:47:47;;;;;;;1.97;0.60;;;22.00;99.90;;;;;;4975981;28;20187;-67
2023/09/23 00:50:19;;;;;;;3.50;0.80;;;21.90;99.90;;;;;;4976127;28;20262;-67
2023/09/23 00:52:53;;;;;;;5.13;1.10;;;22.80;99.90;;;;;;4974637;28;20247;-67
2023/09/23 00:55:24;;;;;;;1.77;0.60;;;22.80;99.90;;;;;;4975997;28;20175;-68
2023/09/23 00:57:59;;;;;;;2.23;1.00;;;22.50;99.90;;;;;;4975863;28;20230;-67
2023/09/23 01:00:30;;;;;;;1.00;0.53;;;23.40;99.90;;;;;;4958391;28;20671;-67
2023/09/23 01:02:59;;;;;;;2.37;1.00;;;24.80;99.90;;;;;;4975878;28;20195;-68
2023/09/23 01:05:28;;;;;;;1.43;0.50;;;25.40;99.90;;;;;;4974534;28;20638;-69
2023/09/23 01:07:57;;;;;;;1.83;0.60;;;24.40;99.90;;;;;;4975722;28;20195;-67
2023/09/23 01:10:25;;;;;;;2.90;0.73;;;23.40;99.90;;;;;;4975650;28;20266;-68
2023/09/23 01:12:53;;;;;;;1.13;0.63;;;23.20;99.90;;;;;;4975222;28;20587;-70
2023/09/23 01:15:25;;;;;;;1.70;0.60;;;23.90;99.90;;;;;;4975692;28;20334;-68
2023/09/23 01:17:54;;;;;;;1.90;0.67;;;24.10;99.90;;;;;;4975580;28;20649;-67
2023/09/23 01:20:25;;;;;;;3.27;1.03;;;24.80;99.30;;;;;;4975560;28;20537;-67
2023/09/23 01:22:57;;;;;;;1.87;0.67;;;25.50;99.90;;;;;;4975497;28;20238;-68
2023/09/23 01:25:25;;;;;;;2.20;0.73;;;26.10;91.80;;;;;;4975342;28;20210;-67
2023/09/23 01:27:53;;;;;;;1.00;0.60;;;24.80;91.10;;;;;;4975246;28;20274;-67
2023/09/23 01:30:21;;;;;;;3.90;0.60;;;23.40;96.50;;;;;;4974521;28;20190;-68
2023/09/23 01:32:51;;;;;;;2.50;0.80;;;22.60;99.90;;;;;;4975262;28;20223;-66
2023/09/23 01:35:20;;;;;;;3.23;0.80;;;23.60;99.10;;;;;;4975335;28;20179;-67
2023/09/23 01:37:50;;;;;;;3.47;0.77;;;24.60;93.90;;;;;;4975194;28;20207;-68
2023/09/23 01:40:18;;;;;;;3.00;0.50;;;22.90;91.90;;;;;;4975074;28;20214;-67
2023/09/23 01:42:48;;;;;;;0.97;0.60;;;22.00;97.00;;;;;;4974897;28;20183;-67
2023/09/23 01:45:19;;;;;;;1.17;0.60;;;21.80;95.90;;;;;;4975056;28;20175;-68
2023/09/23 01:47:47;;;;;;;1.70;0.70;;;21.80;97.00;;;;;;4974963;28;20250;-70
2023/09/23 01:50:18;;;;;;;3.87;0.60;;;21.60;99.90;;;;;;4974859;28;20179;-70
2023/09/23 01:52:46;;;;;;;1.97;1.10;;;21.60;99.70;;;;;;4974918;28;20727;-69
2023/09/23 01:55:16;;;;;;;6.53;1.10;;;21.70;99.90;;;;;;4973704;28;20258;-68
2023/09/23 01:57:47;;;;;;;2.23;0.90;;;21.60;99.90;;;;;;4974778;28;20189;-69
2023/09/23 02:00:24;;;;;;;2.43;0.80;;;23.00;99.90;;;;;;4975029;28;20544;-68
2023/09/23 02:02:55;;;;;;;2.13;0.60;;;22.90;99.90;;;;;;4974825;28;20186;-71
2023/09/23 02:05:29;;;;;;;2.90;0.80;;;22.50;99.90;;;;;;4974769;28;20183;-69
2023/09/23 02:07:57;;;;;;;1.93;0.80;;;22.30;99.90;;;;;;4974793;28;20664;-66
2023/09/23 02:10:26;;;;;;;4.30;1.13;;;22.30;99.90;;;;;;4974368;28;20290;-67
2023/09/23 02:12:54;;;;;;;1.90;0.90;;;22.00;99.90;;;;;;4974227;28;20222;-67
2023/09/23 02:15:22;;;;;;;3.60;0.90;;;21.40;99.90;;;;;;4974938;28;20196;-69
2023/09/23 02:17:50;;;;;;;3.50;1.23;;;21.10;99.90;;;;;;4974243;28;20282;-68
2023/09/23 02:20:22;;;;;;;1.30;0.80;;;21.00;99.90;;;;;;4973127;28;20223;-69
2023/09/23 02:22:53;;;;;;;2.50;0.90;;;21.10;99.90;;;;;;4974416;28;20187;-69
2023/09/23 02:25:24;;;;;;;5.17;1.00;;;21.10;99.90;;;;;;4974566;28;20175;-69
2023/09/23 02:27:53;;;;;;;2.27;0.83;;;21.00;99.90;;;;;;4974298;28;20202;-68
2023/09/23 02:30:21;;;;;;;2.67;0.90;;;20.80;99.90;;;;;;4974219;28;20190;-68
2023/09/23 02:32:49;;;;;;;3.70;0.90;;;21.00;99.90;;;;;;4974182;28;20206;-70
2023/09/23 02:35:17;;;;;;;6.30;1.10;;;21.10;99.90;;;;;;4974492;28;20237;-70
2023/09/23 02:37:48;;;;;;;4.47;1.17;;;21.40;99.90;;;;;;4974361;28;20660;-69
2023/09/23 02:40:16;;;;;;;4.57;1.00;;;21.70;99.90;;;;;;4974162;28;20187;-69
2023/09/23 02:42:46;;;;;;;1.70;0.70;;;21.60;99.90;;;;;;4978133;28;20179;-70
2023/09/23 02:45:16;;;;;;;2.70;0.70;;;21.80;99.90;;;;;;4978199;28;20330;-69
2023/09/23 02:47:44;;;;;;;3.80;0.97;;;22.20;99.90;;;;;;4978563;28;20179;-67
2023/09/23 02:50:17;;;;;;;4.37;1.13;;;22.00;99.90;;;;;;4978150;28;20211;-70
2023/09/23 02:52:49;;;;;;;4.10;1.17;;;21.80;99.90;;;;;;4977931;28;20228;-67
2023/09/23 02:55:19;;;;;;;3.87;1.37;;;21.60;99.90;;;;;;4977832;28;20175;-68
2023/09/23 02:57:52;;;;;;;1.33;0.60;;;21.30;99.90;;;;;;4978025;28;20270;-68
2023/09/23 03:00:23;;;;;;;2.87;1.00;;;21.40;99.90;;;;;;4960485;28;20238;-69
2023/09/23 03:02:55;;;;;;;3.13;0.87;;;21.40;99.90;;;;;;4978067;28;20238;-70
2023/09/23 03:05:31;;;;;;;1.87;0.70;;;21.60;99.90;;;;;;4977616;28;20189;-67
2023/09/23 03:08:00;;;;;;;2.03;0.70;;;21.60;99.90;;;;;;4977666;28;20644;-67
2023/09/23 03:10:34;;;;;;;1.80;0.90;;;21.70;99.90;;;;;;4960174;28;20190;-68
2023/09/23 03:13:05;;;;;;;2.20;0.90;;;21.80;99.90;;;;;;4977513;28;20653;-69
2023/09/23 03:15:48;;;;;;;6.33;1.10;;;21.70;99.90;;;;;;4977497;28;20203;-68
2023/09/23 03:18:17;;;;;;;3.07;0.80;;;21.80;99.90;;;;;;4977723;28;20170;-68
2023/09/23 03:20:45;;;;;;;1.33;0.57;;;21.80;99.90;;;;;;4977305;28;20225;-67
2023/09/23 03:23:13;;;;;;;1.50;0.90;;;21.70;99.90;;;;;;4960113;28;20594;-67
2023/09/23 03:25:48;;;;;;;3.13;1.10;;;21.70;99.90;;;;;;4977420;28;20186;-68
2023/09/23 03:28:16;;;;;;;2.70;1.23;;;21.40;99.90;;;;;;4959900;28;20603;-67
2023/09/23 03:30:47;;;;;;;3.03;0.90;;;21.30;99.90;;;;;;4977240;28;20335;-67
2023/09/23 03:33:21;;;;;;;4.60;0.93;;;21.30;99.90;;;;;;4977132;28;20215;-68
2023/09/23 03:35:49;;;;;;;5.53;0.73;;;21.10;99.90;;;;;;4977135;28;20183;-69
2023/09/23 03:38:17;;;;;;;3.97;0.90;;;21.10;99.90;;;;;;4977342;28;20182;-69
2023/09/23 03:40:53;;;;;;;2.20;0.80;;;21.10;99.90;;;;;;4977116;28;20242;-67
2023/09/23 03:43:21;;;;;;;2.90;0.93;;;20.90;99.90;;;;;;4977502;28;20217;-67
2023/09/23 03:45:50;;;;;;;6.10;0.80;;;21.00;99.90;;;;;;4977042;28;20642;-67
2023/09/23 03:48:18;;;;;;;0.73;0.60;;;21.00;99.90;;;;;;4976936;28;20286;-66
2023/09/23 03:50:53;;;;;;;5.20;1.10;;;20.80;99.90;;;;;;4976884;28;20262;-68
2023/09/23 03:53:23;;;;;;;3.67;0.90;;;20.90;99.90;;;;;;4976058;28;20211;-67
2023/09/23 03:55:54;;;;;;;1.07;0.60;;;21.00;99.90;;;;;;4976856;28;20183;-67
2023/09/23 03:58:22;;;;;;;2.83;0.83;;;20.90;99.90;;;;;;4976848;28;20211;-68
2023/09/23 04:00:50;;;;;;;2.33;0.67;;;20.80;99.90;;;;;;4975486;28;20201;-69
2023/09/23 04:03:18;;;;;;;3.13;1.00;;;21.00;99.90;;;;;;4976592;28;20234;-67
2023/09/23 04:05:55;;;;;;;3.03;0.80;;;21.30;99.90;;;;;;4959401;28;20661;-68
2023/09/23 04:08:22;;;;;;;1.43;0.70;;;21.30;99.90;;;;;;4976587;28;20191;-67
2023/09/23 04:10:50;;;;;;;3.57;0.90;;;21.40;99.90;;;;;;4976574;28;20180;-66
2023/09/23 04:13:19;;;;;;;2.30;0.70;;;21.50;99.90;;;;;;4976486;28;20250;-68
2023/09/23 04:15:46;;;;;;;2.60;0.87;;;21.40;99.90;;;;;;4976681;28;20250;-67
2023/09/23 04:18:14;;;;;;;0.90;0.70;;;21.30;99.90;;;;;;4976962;28;20179;-68
2023/09/23 04:20:43;;;;;;;4.43;0.80;;;21.30;99.90;;;;;;4976441;28;20175;-66
2023/09/23 04:23:11;;;;;;;1.70;0.80;;;21.40;99.90;;;;;;4976547;28;20661;-68
2023/09/23 04:25:39;;;;;;;1.57;0.83;;;21.40;99.90;;;;;;4976280;28;20179;-67
2023/09/23 04:28:08;;;;;;;3.70;0.90;;;21.50;99.90;;;;;;4976357;28;20211;-67
2023/09/23 04:30:35;;;;;;;3.07;0.90;;;21.70;99.90;;;;;;4976092;28;20176;-68
2023/09/23 04:33:04;;;;;;;2.17;0.80;;;21.50;99.90;;;;;;4976141;28;20228;-67
2023/09/23 04:35:32;;;;;;;3.87;0.93;;;21.60;99.90;;;;;;4976015;28;20179;-67
2023/09/23 04:38:00;;;;;;;2.37;1.00;;;21.90;99.90;;;;;;4976090;28;20202;-67
2023/09/23 04:40:28;;;;;;;2.30;0.70;;;22.50;97.20;;;;;;4974813;28;20272;-67
2023/09/23 04:42:56;;;;;;;2.20;0.77;;;22.30;98.30;;;;;;4975922;28;20322;-67
2023/09/23 04:45:24;;;;;;;2.73;1.63;;;22.20;98.60;;;;;;4975883;28;20676;-66
2023/09/23 04:47:51;;;;;;;4.93;0.90;;;22.20;98.70;;;;;;4975997;28;20660;-68
2023/09/23 04:50:23;;;;;;;2.50;0.70;;;22.00;97.50;;;;;;4975630;28;20187;-67
2023/09/23 04:52:50;;;;;;;1.70;0.73;;;21.90;97.30;;;;;;4975868;28;20677;-67
2023/09/23 04:55:19;;;;;;;1.57;0.73;;;22.00;98.10;;;;;;4975943;28;20185;-68
2023/09/23 04:57:47;;;;;;;2.93;0.90;;;22.00;97.80;;;;;;4975749;28;20187;-68
2023/09/23 05:00:19;;;;;;;1.33;0.80;;;22.10;98.00;;;;;;4975666;28;20172;-68
2023/09/23 05:02:50;;;;;;;1.70;0.83;;;22.00;96.90;;;;;;4974725;28;20663;-68
2023/09/23 05:05:19;;;;;;;2.50;0.97;;;22.30;98.60;;;;;;4974788;28;20185;-68
2023/09/23 05:07:46;;;;;;;2.17;1.00;;;22.20;98.90;;;;;;4975712;28;20167;-67
2023/09/23 05:10:14;;;;;;;4.07;0.70;;;22.20;97.60;;;;;;4975462;28;20238;-67
2023/09/23 05:12:47;;;;;;;2.23;0.70;;;22.20;98.00;;;;;;4975488;28;20213;-67
2023/09/23 05:15:15;;;;;;;3.83;0.80;;;21.90;98.60;;;;;;4974542;28;20191;-67
2023/09/23 05:17:45;;;;;;;2.10;0.80;;;21.60;99.90;;;;;;4975483;28;20171;-67
2023/09/23 05:20:18;;;;;;;2.20;0.90;;;21.40;99.90;;;;;;4975610;28;20272;-67
2023/09/23 05:22:47;;;;;;;1.27;0.67;;;21.10;99.90;;;;;;4975355;28;20175;-67
2023/09/23 05:25:15;;;;;;;2.50;0.90;;;20.90;99.90;;;;;;4957934;28;20604;-67
2023/09/23 05:27:43;;;;;;;1.83;0.67;;;20.70;99.90;;;;;;4957817;28;20597;-67
2023/09/23 05:30:12;;;;;;;1.97;0.73;;;20.50;99.90;;;;;;4975164;28;20182;-67
2023/09/23 05:32:39;;;;;;;2.33;1.20;;;20.50;99.90;;;;;;4974912;28;20246;-67
2023/09/23 05:35:11;;;;;;;2.90;0.80;;;20.40;99.90;;;;;;4975221;28;20181;-67
2023/09/23 05:37:40;;;;;;;1.23;0.80;;;20.30;99.90;;;;;;4974952;28;20571;-67
2023/09/23 05:40:29;;;;;;;4.87;1.10;;;20.40;99.90;;;;;;4974896;28;20179;-67
2023/09/23 05:42:56;;;;;;;3.17;0.77;;;20.50;99.90;;;;;;4974380;28;20195;-67
2023/09/23 05:45:24;;;;;;;2.80;0.90;;;20.60;99.90;;;;;;4974853;28;20202;-67
2023/09/23 05:47:52;;;;;;;1.97;0.70;;;20.70;99.90;;;;;;4974805;28;20180;-67
2023/09/23 05:50:20;;;;;;;1.67;1.00;;;20.70;99.90;;;;;;4973825;28;20179;-69
2023/09/23 05:52:49;;;;;;;4.30;0.90;;;20.70;99.90;;;;;;4974885;28;20226;-68
2023/09/23 05:55:17;;;;;;;5.37;0.90;;;20.70;99.90;;;;;;4974703;28;20183;-68
2023/09/23 05:57:45;;;;;;;2.87;0.90;;;20.70;99.90;;;;;;4974920;28;20265;-69
2023/09/23 06:00:17;;;;;;;1.47;0.80;;;20.40;99.90;;;;;;4974656;28;20195;-68
2023/09/23 06:02:45;;;;;;;1.87;0.70;;;20.30;99.90;;;;;;4974830;28;20637;-68
2023/09/23 06:05:15;;;;;;;3.57;0.90;;;20.10;99.90;;;;;;4974868;28;20240;-68
2023/09/23 06:07:43;;;;;;;1.27;0.70;;;20.00;99.90;;;;;;4974754;28;20209;-69
2023/09/23 06:10:11;;;;;;;1.43;0.83;;;19.90;99.90;;;;;;4974203;28;20279;-68
2023/09/23 06:12:39;;;;;;;3.70;0.80;;;19.90;99.90;;;;;;4974469;28;20215;-67
2023/09/23 06:15:10;;;;;;;2.57;1.00;;;19.90;99.90;;;;;;4973608;28;20252;-68
2023/09/23 06:17:38;;;;;;;1.43;0.80;;;20.00;99.90;;;;;;4957002;28;20194;-68
2023/09/23 06:20:07;;;;;;;3.27;0.90;;;20.10;99.90;;;;;;4974337;28;20183;-68
2023/09/23 06:22:35;;;;;;;5.20;0.90;;;20.10;99.90;;;;;;4974564;28;20186;-68
2023/09/23 06:25:03;;;;;;;2.60;0.90;;;20.20;99.90;;;;;;4974498;28;20210;-66
2023/09/23 06:27:31;;;;;;;3.83;0.97;;;20.20;99.90;;;;;;4974309;28;20183;-66
2023/09/23 06:29:59;;;;;;;2.43;0.80;;;20.10;99.90;;;;;;4974153;28;20590;-67
2023/09/23 06:32:27;;;;;;;2.97;1.13;;;20.20;99.90;;;;;;4974398;28;20207;-68
2023/09/23 06:34:55;;;;;;;1.83;0.70;;;20.20;99.90;;;;;;4973168;28;20190;-68
2023/09/23 06:37:23;;;;;;;2.70;0.93;;;20.50;99.90;;;;;;4974375;28;20206;-69
2023/09/23 06:39:50;;;;;;;3.60;0.90;;;20.70;99.90;;;;;;4974229;28;20177;-67
2023/09/23 06:42:18;;;;;;;3.30;0.60;;;20.90;99.90;;;;;;4974253;28;20182;-68
2023/09/23 06:44:48;;;;;;;2.10;0.93;;;21.00;99.90;;;;;;4974280;28;20207;-69
2023/09/23 06:47:15;;;;;;;1.70;0.80;;;20.60;99.90;;;;;;4974136;28;20210;-69
2023/09/23 06:49:43;;;;;;;3.10;0.70;;;20.50;99.90;;;;;;4974130;28;20190;-69
2023/09/23 06:52:12;;;;;;;0.70;0.50;;;20.10;99.90;;;;;;4973875;28;20185;-71
2023/09/23 06:54:40;;;;;;;5.27;0.90;;;19.60;99.90;;;;;;4973811;28;20219;-68
2023/09/23 06:57:07;;;;;;;1.73;0.80;;;19.30;99.90;;;;;;4974065;28;20185;-68
2023/09/23 06:59:35;;;;;;;4.30;0.73;;;19.20;99.90;;;;;;4974139;28;20190;-68
2023/09/23 07:02:03;;;;;;;1.10;0.63;;;19.20;99.90;;;;;;4974096;28;20248;-66
2023/09/23 07:04:32;;;;;;;2.57;0.63;;;19.10;99.90;;;;;;4974159;28;20183;-67
2023/09/23 07:06:59;;;;;;;2.53;0.97;;;19.00;99.90;;;;;;4972838;28;20181;-67
2023/09/23 07:09:28;;;;;;;4.27;1.10;;;18.90;99.90;;;;;;4973839;28;20645;-67
2023/09/23 07:11:57;;;;;;;2.20;0.87;;;18.80;99.90;;;;;;4973933;28;20171;-66
2023/09/23 07:14:25;;;;;;;2.57;0.83;;;18.70;99.90;;;;;;4973645;28;20290;-67
2023/09/23 07:16:54;;;;;;;5.57;1.07;;;18.60;99.90;;;;;;4955634;28;20187;-70
2023/09/23 07:19:22;;;;;;;2.90;0.80;;;18.60;99.90;;;;;;4954833;28;20223;-70
2023/09/23 07:21:50;;;;;;;4.83;0.90;;;18.60;99.90;;;;;;4972631;28;20663;-68
2023/09/23 07:24:18;;;;;;;3.97;0.83;;;18.40;99.90;;;;;;4941958;28;20547;-67
2023/09/23 07:26:46;;;;;;;1.73;0.80;;;18.40;99.90;;;;;;4971564;28;20192;-69
2023/09/23 07:29:14;;;;;;;3.53;0.80;;;18.30;99.90;;;;;;4974764;28;20183;-68
2023/09/23 07:31:42;;;;;;;4.00;1.00;;;18.20;99.90;;;;;;4976282;28;20185;-68
2023/09/23 07:34:09;;;;;;;3.97;1.00;;;18.10;99.90;;;;;;4979491;28;20246;-68
2023/09/23 07:36:37;;;;;;;1.50;0.60;;;18.10;99.90;;;;;;4972404;28;20194;-68
2023/09/23 07:39:05;;;;;;;2.20;0.90;;;18.00;99.90;;;;;;4955910;29;20249;-69
2023/09/23 07:41:33;;;;;;;2.73;0.97;;;17.90;99.90;;;;;;4956268;28;20208;-69
2023/09/23 07:44:00;;;;;;;2.33;0.97;;;17.80;99.90;;;;;;4939844;28;20707;-68
2023/09/23 07:46:28;;;;;;;2.40;0.80;;;17.70;99.90;;;;;;4974934;28;20270;-70
2023/09/23 07:48:56;;;;;;;2.87;1.20;;;17.60;99.90;;;;;;4975287;28;20211;-68
2023/09/23 07:51:23;;;;;;;3.90;1.13;;;17.60;99.90;;;;;;4975076;28;20714;-68
2023/09/23 07:53:54;;;;;;;1.67;1.00;;;17.50;99.90;;;;;;4975011;28;20664;-69
2023/09/23 07:56:22;;;;;;;2.40;1.20;;;17.50;99.90;;;;;;4975184;28;20196;-69
2023/09/23 07:58:50;;;;;;;2.70;0.90;;;17.40;99.90;;;;;;4975189;28;20187;-68
2023/09/23 08:01:18;;;;;;;3.43;1.10;;;17.40;99.90;;;;;;4974834;28;20182;-69
2023/09/23 08:03:45;;;;;;;3.27;1.10;;;17.30;99.90;;;;;;4975423;28;20183;-69
2023/09/23 08:06:13;;;;;;;3.10;1.20;;;17.20;99.90;;;;;;4974913;28;20180;-68
2023/09/23 08:08:41;;;;;;;2.37;1.10;;;17.20;99.90;;;;;;4957143;28;20199;-69
2023/09/23 08:11:08;;;;;;;2.20;1.20;;;17.10;99.90;;;;;;4974826;28;20288;-68
2023/09/23 08:13:39;;;;;;;1.50;0.80;;;17.00;99.90;;;;;;4974420;28;20326;-68
2023/09/23 08:16:07;;;;;;;2.67;1.10;;;16.90;99.90;;;;;;4973951;28;20195;-69
2023/09/23 08:18:35;;;;;;;3.70;1.50;;;17.00;99.90;;;;;;4974946;28;20175;-68
2023/09/23 08:21:02;;;;;;;3.37;1.10;;;16.90;99.90;;;;;;4974836;28;20211;-69
2023/09/23 08:23:32;;;;;;;4.23;1.07;;;16.90;99.90;;;;;;4974138;28;20183;-69
2023/09/23 08:25:59;;;;;;;2.30;1.37;;;16.80;99.90;;;;;;4974546;28;20202;-69
2023/09/23 08:28:27;;;;;;;4.87;1.20;;;16.70;99.90;;;;;;4974725;28;20191;-68
2023/09/23 08:30:55;;;;;;;2.17;1.03;;;16.70;99.90;;;;;;4974399;28;20180;-69
2023/09/23 08:33:23;;;;;;;2.33;1.10;;;16.70;99.90;;;;;;4974422;28;20629;-69
2023/09/23 08:35:51;;;;;;;3.00;1.00;;;16.70;99.90;;;;;;4974779;28;20575;-68
2023/09/23 08:38:18;;;;;;;3.13;1.30;;;16.50;99.90;;;;;;4973968;28;20190;-69
2023/09/23 08:40:50;;;;;;;1.40;1.00;;;16.50;99.90;;;;;;4974090;28;20188;-70
2023/09/23 08:43:36;;;;;;;4.27;1.43;;;16.50;99.90;;;;;;4974371;28;20657;-69
2023/09/23 08:46:05;;;;;;;4.90;1.40;;;16.50;99.90;;;;;;4976088;28;20725;-70
2023/09/23 08:48:34;;;;;;;3.27;1.40;;;16.40;99.90;;;;;;4975075;28;20286;-69
2023/09/23 08:51:06;;;;;;;4.87;1.53;;;16.40;99.90;;;;;;4975511;28;20187;-68
2023/09/23 08:53:39;;;;;;;5.33;1.40;;;16.30;99.90;;;;;;4975798;28;20277;-69
2023/09/23 08:56:07;;;;;;;2.10;1.30;;;16.30;99.90;;;;;;4972659;28;20257;-68
2023/09/23 08:58:35;;;;;;;3.03;1.27;;;16.20;99.90;;;;;;4980384;28;20546;-69
2023/09/23 09:01:03;;;;;;;3.17;1.40;;;16.10;99.90;;;;;;4969414;28;20183;-69
2023/09/23 09:03:32;;;;;;;2.27;1.33;;;16.10;99.90;;;;;;4974944;28;20179;-68
2023/09/23 09:06:00;;;;;;;3.53;1.40;;;16.10;99.90;;;;;;4975190;28;20240;-70
2023/09/23 09:08:32;;;;;;;2.13;1.60;;;16.10;99.90;;;;;;4975106;28;20187;-70
2023/09/23 09:10:59;;;;;;;2.53;1.20;;;16.00;99.90;;;;;;4974593;28;20704;-69
2023/09/23 09:13:30;;;;;;;1.80;1.43;;;15.90;99.90;;;;;;4975066;28;20223;-68
2023/09/23 09:16:04;;;;;;;5.10;1.67;;;15.80;99.90;;;;;;4971024;28;20183;-69
2023/09/23 09:18:31;;;;;;;2.90;1.30;;;15.70;99.90;;;;;;4954622;28;20914;-69
2023/09/23 09:20:59;;;;;;;4.10;1.50;;;15.60;99.90;;;;;;4965475;28;20707;-69
2023/09/23 09:23:32;;;;;;;6.83;1.90;;;15.50;99.90;;;;;;4973035;28;20179;-68
2023/09/23 09:26:00;;;;;;;5.43;1.67;;;15.40;99.90;;;;;;4971801;28;20183;-69
2023/09/23 09:28:30;;;;;;;6.27;1.73;;;15.40;99.90;;;;;;4971554;28;20187;-68
2023/09/23 09:30:59;;;;;;;4.73;1.80;;;15.30;99.90;;;;;;4972711;28;21010;-67
2023/09/23 09:33:29;;;;;;;3.67;1.47;;;15.30;99.90;;;;;;4971506;28;20233;-69
2023/09/23 09:35:57;;;;;;;6.20;1.67;;;15.20;99.90;;;;;;4972582;28;20270;-69
2023/09/23 09:38:28;;;;;;;8.30;2.17;;;15.10;99.90;;;;;;4972387;28;20195;-70
2023/09/23 09:41:05;;;;;;;5.20;1.77;;;15.00;99.90;;;;;;4964409;28;20186;-69
2023/09/23 09:43:33;;;;;;;8.40;1.83;;;15.00;99.90;;;;;;4955777;28;20304;-70
2023/09/23 09:46:08;;;;;;;3.77;1.73;;;14.90;99.90;;;;;;4972377;28;20176;-69
2023/09/23 09:48:43;;;;;;;6.73;1.77;;;14.90;99.90;;;;;;4971763;28;20276;-70
2023/09/23 09:51:16;;;;;;;4.20;1.80;;;14.80;99.90;;;;;;4971401;28;20213;-69
2023/09/23 09:53:45;;;;;;;2.93;1.77;;;14.80;99.90;;;;;;4969976;28;20227;-70
2023/09/23 09:56:16;;;;;;;4.23;1.87;;;14.80;99.90;;;;;;4972230;28;20195;-70
2023/09/23 09:58:50;;;;;;;10.27;2.00;;;14.70;99.90;;;;;;4971465;28;20277;-69
2023/09/23 10:01:18;;;;;;;4.53;1.80;;;14.70;99.90;;;;;;4954701;28;20195;-72
2023/09/23 10:03:51;;;;;;;3.17;1.60;;;14.60;99.90;;;;;;4953903;28;20240;-70
2023/09/23 10:06:21;;;;;;;4.67;1.70;;;14.60;99.90;;;;;;4971391;28;21037;-70
2023/09/23 10:08:49;;;;;;;3.53;1.80;;;14.50;99.90;;;;;;4971693;28;20192;-70
2023/09/23 10:11:17;;;;;;;3.27;1.80;;;14.40;99.90;;;;;;4970896;28;20182;-70
2023/09/23 10:13:46;;;;;;;3.10;1.67;;;14.40;99.90;;;;;;4971878;28;20631;-69
2023/09/23 10:16:20;;;;;;;2.97;2.00;;;14.30;99.90;;;;;;4972003;28;20179;-69
2023/09/23 10:18:58;;;;;;;5.63;2.07;;;14.20;99.90;;;;;;4971086;28;20203;-70
2023/09/23 10:21:27;;;;;;;3.57;1.70;;;14.20;99.90;;;;;;4971612;28;20241;-71
2023/09/23 10:23:57;;;;;;;6.10;2.13;;;14.20;99.90;;;;;;4972109;28;20180;-69
2023/09/23 10:26:30;;;;;;;4.40;2.30;;;14.10;99.90;;;;;;4971614;28;20204;-69
2023/09/23 10:29:03;;;;;;;6.03;2.30;;;14.10;99.90;;;;;;4971978;28;20295;-69
2023/09/23 10:31:33;;;;;;;4.70;2.13;;;14.00;99.90;;;;;;4971458;28;20218;-69
2023/09/23 10:34:10;;;;;;;4.60;2.10;;;14.00;99.90;;;;;;4970736;28;20273;-69
2023/09/23 10:36:39;;;;;;;4.83;2.20;;;14.00;99.90;;;;;;4971859;28;20206;-69
2023/09/23 10:39:16;;;;;;;5.73;2.27;;;13.90;99.90;;;;;;4971238;28;20191;-68
2023/09/23 10:41:44;;;;;;;3.80;1.93;;;13.90;99.90;;;;;;4971248;28;20213;-69
2023/09/23 10:44:13;;;;;;;5.37;2.37;;;13.90;99.90;;;;;;4970970;28;20190;-67
2023/09/23 10:46:41;;;;;;;4.10;2.60;;;13.90;99.90;;;;;;4972051;28;20206;-69
2023/09/23 10:49:12;;;;;;;3.90;2.40;;;13.90;99.90;;;;;;4965205;28;20684;-70
2023/09/23 10:51:40;;;;;;;3.63;2.23;;;14.00;99.90;;;;;;4966489;28;20652;-69
2023/09/23 10:54:08;;;;;;;6.23;2.40;;;14.00;99.90;;;;;;4943163;29;20294;-70
2023/09/23 10:56:38;;;;;;;5.07;2.73;;;14.00;99.90;;;;;;4968648;28;20182;-70
2023/09/23 10:59:05;;;;;;;3.30;2.30;;;14.00;99.90;;;;;;4971582;28;20266;-69
2023/09/23 11:01:33;;;;;;;5.27;2.50;;;14.00;99.90;;;;;;4971638;28;20187;-69
2023/09/23 11:04:01;;;;;;;4.40;2.63;;;14.00;99.90;;;;;;4974777;28;20796;-69
2023/09/23 11:06:29;;;;;;;5.17;2.73;;;14.00;99.90;;;;;;4975559;28;20210;-69
2023/09/23 11:08:57;;;;;;;5.63;2.73;;;14.10;99.90;;;;;;4975217;28;20645;-68
2023/09/23 11:11:24;;;;;;;5.80;2.97;;;14.10;99.90;;;;;;4974693;28;20274;-70
2023/09/23 11:13:55;;;;;;;6.40;2.90;;;14.20;99.90;;;;;;4975147;28;20282;-72
2023/09/23 11:16:24;;;;;;;5.63;2.73;;;14.20;99.90;;;;;;4957872;28;20709;-70
2023/09/23 11:18:55;;;;;;;4.10;2.67;;;14.20;99.90;;;;;;4957387;28;20586;-70
2023/09/23 11:21:23;;;;;;;6.90;2.97;;;14.20;99.90;;;;;;4975428;28;20215;-69
2023/09/23 11:23:58;;;;;;;7.03;3.23;;;14.20;99.90;;;;;;4958004;28;20194;-70
2023/09/23 11:26:26;;;;;;;5.27;2.77;;;14.30;99.90;;;;;;4957668;28;20191;-71
2023/09/23 11:28:54;;;;;;;5.00;3.33;;;14.30;99.90;;;;;;4974848;28;20194;-69
2023/09/23 11:31:22;;;;;;;4.27;3.20;;;14.30;99.90;;;;;;4974573;28;20282;-69
2023/09/23 11:33:50;;;;;;;7.80;3.30;;;14.30;99.90;;;;;;4974090;28;20277;-69
2023/09/23 11:36:17;;;;;;;8.43;3.70;;;14.20;99.90;;;;;;4975122;28;20187;-71
2023/09/23 11:38:45;;;;;;;5.37;3.10;;;14.20;99.90;;;;;;4974342;28;20187;-69
2023/09/23 11:41:19;;;;;;;5.70;3.47;;;14.10;99.90;;;;;;4973595;28;20675;-71
2023/09/23 11:43:50;;;;;;;6.77;3.57;;;14.10;99.90;;;;;;4974654;28;20187;-70
2023/09/23 11:46:21;;;;;;;4.97;2.87;;;14.00;99.90;;;;;;4957683;28;20203;-68
2023/09/23 11:48:49;;;;;;;5.47;3.00;;;13.90;99.90;;;;;;4973796;28;20187;-69
2023/09/23 11:51:20;;;;;;;9.30;3.63;;;13.80;99.90;;;;;;4974213;28;20187;-68
2023/09/23 11:53:49;;;;;;;5.23;3.27;;;13.70;99.90;;;;;;4974796;28;20239;-68
2023/09/23 11:56:16;;;;;;;6.50;3.80;;;13.70;99.90;;;;;;4973548;28;20186;-69
2023/09/23 11:58:44;;;;;;;6.27;3.50;;;13.60;99.90;;;;;;4974233;28;20241;-69
2023/09/23 12:01:13;;;;;;;7.93;3.63;;;13.60;99.90;;;;;;4974269;28;20188;-69
2023/09/23 12:03:41;;;;;;;12.27;3.40;;;13.40;99.90;;;;;;4970516;28;20680;-69
2023/09/23 12:06:09;;;;;;;6.43;3.40;;;13.30;99.90;;;;;;4973937;28;20195;-70
2023/09/23 12:08:37;;;;;;;6.27;3.40;;;13.20;99.90;;;;;;4970002;28;20191;-69
2023/09/23 12:11:08;;;;;;;4.37;3.07;;;13.20;99.90;;;;;;4975547;28;20190;-68
2023/09/23 12:13:36;;;;;;;6.70;4.30;;;13.10;99.90;;;;;;4974975;28;20758;-69
2023/09/23 12:16:04;;;;;;;7.53;3.63;;;13.00;99.90;;;;;;4979925;28;20205;-68
2023/09/23 12:18:32;;;;;;;7.50;3.63;;;13.00;99.90;;;;;;4985211;28;20188;-69
2023/09/23 12:21:03;;;;;;;6.20;3.83;;;12.90;99.90;;;;;;4950624;28;20217;-68
2023/09/23 12:23:35;;;;;;;8.73;3.90;;;12.80;99.90;;;;;;4975173;28;20269;-68
2023/09/23 12:26:04;;;;;;;7.50;4.00;;;12.80;99.90;;;;;;4976083;28;20218;-69
2023/09/23 12:28:32;;;;;;;5.17;3.60;;;12.80;99.90;;;;;;4975484;28;20207;-69
2023/09/23 12:31:00;;;;;;;5.57;3.80;;;12.60;99.90;;;;;;4958353;28;20587;-68
2023/09/23 12:33:30;;;;;;;6.13;3.37;;;12.60;99.90;;;;;;4975243;28;20216;-68
2023/09/23 12:35:58;;;;;;;5.07;3.50;;;12.50;99.90;;;;;;4975377;28;20546;-69
2023/09/23 12:38:26;;;;;;;7.30;3.90;;;12.40;99.90;;;;;;4972848;28;20195;-68
2023/09/23 12:40:54;;;;;;;6.77;3.47;;;12.40;99.90;;;;;;4975451;28;20731;-68
2023/09/23 12:43:22;;;;;;;7.17;3.60;;;12.40;99.90;;;;;;4975327;28;20626;-68
2023/09/23 12:45:50;;;;;;;7.20;3.87;;;12.40;99.90;;;;;;4975277;28;20182;-68
2023/09/23 12:48:18;;;;;;;9.30;4.27;;;12.40;99.90;;;;;;4957931;28;20211;-68
2023/09/23 12:50:48;;;;;;;6.87;3.90;;;12.30;99.90;;;;;;4975267;28;20199;-68
2023/09/23 12:53:16;;;;;;;11.17;4.33;;;12.30;99.90;;;;;;4958107;28;20229;-68
2023/09/23 12:55:44;;;;;;;7.63;3.80;;;12.20;99.90;;;;;;4975071;28;20269;-68